sensor_id;sensor_type;location;lat;lon;timestamp;noise_LAeq;noise_LA_min;noise_LA_max;noise_LA01;noise_LA95
48148;Laerm;29352;48.708;9.290;2023-02-03T00:01:33;49.81;43.44;52.98;;
48148;Laerm;29352;48.708;9.290;2023-02-03T00:03:58;50.26;40.89;53.09;;
48148;Laerm;29352;48.708;9.290;2023-02-03T00:06:24;51.12;47.52;54.23;;
48148;Laerm;29352;48.708;9.290;2023-02-03T00:08:54;52.08;48.18;53.90;;
48148;Laerm;29352;48.708;9.290;2023-02-03T00:11:22;50.98;46.91;53.34;;
48148;Laerm;29352;48.708;9.290;2023-02-03T00:13:48;50.61;46.45;65.26;;
48148;Laerm;29352;48.708;9.290;2023-02-03T00:16:13;52.79;46.45;77.54;;
48148;Laerm;29352;48.708;9.290;2023-02-03T00:18:39;54.55;49.08;71.95;;
48148;Laerm;29352;48.708;9.290;2023-02-03T00:21:05;52.39;48.21;69.38;;
48148;Laerm;29352;48.708;9.290;2023-02-03T00:23:31;50.66;46.45;61.48;;
48148;Laerm;29352;48.708;9.290;2023-02-03T00:26:07;50.23;43.90;57.93;;
48148;Laerm;29352;48.708;9.290;2023-02-03T00:28:32;48.44;40.89;52.16;;
48148;Laerm;29352;48.708;9.290;2023-02-03T00:30:58;48.53;36.91;51.82;;
48148;Laerm;29352;48.708;9.290;2023-02-03T00:33:23;49.67;46.20;60.29;;
48148;Laerm;29352;48.708;9.290;2023-02-03T00:35:48;49.63;45.36;53.63;;
48148;Laerm;29352;48.708;9.290;2023-02-03T00:38:14;49.51;45.04;56.20;;
48148;Laerm;29352;48.708;9.290;2023-02-03T00:40:39;48.83;44.31;51.96;;
48148;Laerm;29352;48.708;9.290;2023-02-03T00:43:05;49.03;40.89;60.37;;
48148;Laerm;29352;48.708;9.290;2023-02-03T00:45:30;48.40;42.93;54.35;;
48148;Laerm;29352;48.708;9.290;2023-02-03T00:47:55;48.70;41.68;51.22;;
48148;Laerm;29352;48.708;9.290;2023-02-03T00:50:21;47.81;15.00;51.06;;
48148;Laerm;29352;48.708;9.290;2023-02-03T00:52:46;46.44;15.00;51.06;;
48148;Laerm;29352;48.708;9.290;2023-02-03T00:55:12;46.63;15.00;51.38;;
48148;Laerm;29352;48.708;9.290;2023-02-03T00:57:37;47.50;33.90;51.96;;
48148;Laerm;29352;48.708;9.290;2023-02-03T01:00:04;47.74;33.90;59.74;;
48148;Laerm;29352;48.708;9.290;2023-02-03T01:02:30;47.95;40.89;50.98;;
48148;Laerm;29352;48.708;9.290;2023-02-03T01:04:55;47.39;15.00;50.62;;
48148;Laerm;29352;48.708;9.290;2023-02-03T01:07:21;46.94;15.00;52.82;;
48148;Laerm;29352;48.708;9.290;2023-02-03T01:09:46;48.60;38.67;63.03;;
48148;Laerm;29352;48.708;9.290;2023-02-03T01:12:12;56.03;15.00;90.19;;
48148;Laerm;29352;48.708;9.290;2023-02-03T01:14:37;52.42;43.90;54.65;;
48148;Laerm;29352;48.708;9.290;2023-02-03T01:17:03;52.24;43.90;54.31;;
48148;Laerm;29352;48.708;9.290;2023-02-03T01:19:28;52.05;46.69;61.13;;
48148;Laerm;29352;48.708;9.290;2023-02-03T01:21:54;51.97;49.21;54.51;;
48148;Laerm;29352;48.708;9.290;2023-02-03T01:24:19;51.92;38.67;68.86;;
48148;Laerm;29352;48.708;9.290;2023-02-03T01:26:45;50.69;45.36;54.03;;
48148;Laerm;29352;48.708;9.290;2023-02-03T01:29:10;52.11;47.12;55.60;;
48148;Laerm;29352;48.708;9.290;2023-02-03T01:31:40;52.58;46.69;66.97;;
48148;Laerm;29352;48.708;9.290;2023-02-03T01:34:11;52.78;50.13;54.27;;
48148;Laerm;29352;48.708;9.290;2023-02-03T01:36:38;52.70;50.08;54.27;;
48148;Laerm;29352;48.708;9.290;2023-02-03T01:39:04;51.95;48.37;59.67;;
48148;Laerm;29352;48.708;9.290;2023-02-03T01:41:34;51.46;47.52;53.94;;
48148;Laerm;29352;48.708;9.290;2023-02-03T01:44:33;51.35;48.05;53.44;;
48148;Laerm;29352;48.708;9.290;2023-02-03T01:47:01;50.08;45.04;52.71;;
48148;Laerm;29352;48.708;9.290;2023-02-03T01:49:34;49.98;45.04;53.14;;
48148;Laerm;29352;48.708;9.290;2023-02-03T01:52:03;50.09;46.45;53.39;;
48148;Laerm;29352;48.708;9.290;2023-02-03T01:54:38;50.98;46.20;54.83;;
48148;Laerm;29352;48.708;9.290;2023-02-03T01:57:19;51.41;48.37;53.44;;
48148;Laerm;29352;48.708;9.290;2023-02-03T01:59:47;51.23;47.12;53.19;;
48148;Laerm;29352;48.708;9.290;2023-02-03T02:02:14;50.73;45.66;53.34;;
48148;Laerm;29352;48.708;9.290;2023-02-03T02:05:02;49.74;43.90;52.35;;
48148;Laerm;29352;48.708;9.290;2023-02-03T02:07:31;49.75;45.36;52.98;;
48148;Laerm;29352;48.708;9.290;2023-02-03T02:09:59;49.55;43.44;52.24;;
48148;Laerm;29352;48.708;9.290;2023-02-03T02:12:24;49.20;43.90;57.55;;
48148;Laerm;29352;48.708;9.290;2023-02-03T02:14:50;49.45;42.35;57.72;;
48148;Laerm;29352;48.708;9.290;2023-02-03T02:17:38;49.25;42.35;53.39;;
48148;Laerm;29352;48.708;9.290;2023-02-03T02:38:58;49.22;44.31;68.91;;
48148;Laerm;29352;48.708;9.290;2023-02-03T02:41:48;49.51;45.04;65.43;;
48148;Laerm;29352;48.708;9.290;2023-02-03T02:44:28;48.89;43.90;54.65;;
48148;Laerm;29352;48.708;9.290;2023-02-03T02:47:11;49.13;45.04;55.27;;
48148;Laerm;29352;48.708;9.290;2023-02-03T02:50:00;48.33;15.00;59.96;;
48148;Laerm;29352;48.708;9.290;2023-02-03T02:52:35;49.22;33.90;56.33;;
48148;Laerm;29352;48.708;9.290;2023-02-03T02:55:13;54.93;15.00;90.20;;
48148;Laerm;29352;48.708;9.290;2023-02-03T02:57:42;48.78;40.54;60.99;;
48148;Laerm;29352;48.708;9.290;2023-02-03T03:00:11;48.67;15.00;61.30;;
48148;Laerm;29352;48.708;9.290;2023-02-03T03:02:36;51.17;44.69;59.08;;
48148;Laerm;29352;48.708;9.290;2023-02-03T03:05:09;51.05;39.92;64.55;;
48148;Laerm;29352;48.708;9.290;2023-02-03T03:07:47;49.79;39.92;54.19;;
48148;Laerm;29352;48.708;9.290;2023-02-03T03:10:21;49.75;39.92;53.94;;
48148;Laerm;29352;48.708;9.290;2023-02-03T03:12:58;49.28;38.67;54.07;;
48148;Laerm;29352;48.708;9.290;2023-02-03T03:15:30;49.89;33.90;56.02;;
48148;Laerm;29352;48.708;9.290;2023-02-03T03:18:23;47.88;15.00;56.73;;
48148;Laerm;29352;48.708;9.290;2023-02-03T03:20:55;63.48;15.00;96.39;;
48148;Laerm;29352;48.708;9.290;2023-02-03T03:23:29;52.30;42.93;54.43;;
48148;Laerm;29352;48.708;9.290;2023-02-03T03:26:23;52.60;40.89;55.01;;
48148;Laerm;29352;48.708;9.290;2023-02-03T03:31:39;51.75;38.67;57.14;;
48148;Laerm;29352;48.708;9.290;2023-02-03T03:34:08;53.36;50.33;57.36;;
48148;Laerm;29352;48.708;9.290;2023-02-03T03:36:46;51.42;44.31;59.49;;
48148;Laerm;29352;48.708;9.290;2023-02-03T03:39:36;50.37;36.91;54.97;;
48148;Laerm;29352;48.708;9.290;2023-02-03T03:44:56;51.94;46.91;54.97;;
48148;Laerm;29352;48.708;9.290;2023-02-03T03:47:38;48.66;40.89;53.14;;
48148;Laerm;29352;48.708;9.290;2023-02-03T03:50:17;51.36;45.66;53.94;;
48148;Laerm;29352;48.708;9.290;2023-02-03T03:52:48;51.07;43.90;53.54;;
48148;Laerm;29352;48.708;9.290;2023-02-03T03:55:18;51.13;43.44;54.03;;
48148;Laerm;29352;48.708;9.290;2023-02-03T03:58:03;50.67;44.31;53.77;;
48148;Laerm;29352;48.708;9.290;2023-02-03T04:00:34;51.20;43.44;54.23;;
48148;Laerm;29352;48.708;9.290;2023-02-03T04:03:16;50.97;44.69;53.19;;
48148;Laerm;29352;48.708;9.290;2023-02-03T04:05:42;50.33;42.93;53.04;;
48148;Laerm;29352;48.708;9.290;2023-02-03T04:08:07;51.17;36.91;54.03;;
48148;Laerm;29352;48.708;9.290;2023-02-03T04:10:37;51.17;45.94;54.27;;
48148;Laerm;29352;48.708;9.290;2023-02-03T04:13:04;52.13;46.45;54.27;;
48148;Laerm;29352;48.708;9.290;2023-02-03T04:15:32;52.29;48.21;55.69;;
48148;Laerm;29352;48.708;9.290;2023-02-03T04:17:58;51.77;47.32;54.19;;
48148;Laerm;29352;48.708;9.290;2023-02-03T04:20:27;51.88;44.31;53.99;;
48148;Laerm;29352;48.708;9.290;2023-02-03T04:22:53;51.79;46.91;53.99;;
48148;Laerm;29352;48.708;9.290;2023-02-03T04:25:19;48.77;36.91;52.98;;
48148;Laerm;29352;48.708;9.290;2023-02-03T04:30:11;54.45;49.81;57.14;;
48148;Laerm;29352;48.708;9.290;2023-02-03T04:32:37;55.08;51.30;57.10;;
48148;Laerm;29352;48.708;9.290;2023-02-03T04:35:07;54.80;51.53;57.55;;
48148;Laerm;29352;48.708;9.290;2023-02-03T04:37:33;54.93;48.95;58.13;;
48148;Laerm;29352;48.708;9.290;2023-02-03T04:39:58;54.92;51.55;59.14;;
48148;Laerm;29352;48.708;9.290;2023-02-03T04:42:24;54.37;49.81;66.75;;
48148;Laerm;29352;48.708;9.290;2023-02-03T04:44:50;53.03;43.44;65.58;;
48148;Laerm;29352;48.708;9.290;2023-02-03T04:47:17;53.96;50.62;69.28;;
48148;Laerm;29352;48.708;9.290;2023-02-03T04:49:43;54.19;51.14;57.44;;
48148;Laerm;29352;48.708;9.290;2023-02-03T04:52:09;54.03;51.14;57.36;;
48148;Laerm;29352;48.708;9.290;2023-02-03T04:54:35;53.71;51.14;56.69;;
48148;Laerm;29352;48.708;9.290;2023-02-03T04:57:00;54.02;51.06;60.81;;
48148;Laerm;29352;48.708;9.290;2023-02-03T04:59:26;54.60;50.45;66.74;;
48148;Laerm;29352;48.708;9.290;2023-02-03T05:01:52;54.71;49.92;71.79;;
48148;Laerm;29352;48.708;9.290;2023-02-03T05:04:19;55.14;50.13;75.24;;
48148;Laerm;29352;48.708;9.290;2023-02-03T05:06:44;54.33;51.06;67.19;;
48148;Laerm;29352;48.708;9.290;2023-02-03T05:09:10;54.54;50.33;72.85;;
48148;Laerm;29352;48.708;9.290;2023-02-03T05:11:36;54.60;50.89;68.01;;
48148;Laerm;29352;48.708;9.290;2023-02-03T05:14:01;54.44;51.26;73.79;;
48148;Laerm;29352;48.708;9.290;2023-02-03T05:16:27;54.59;51.14;68.84;;
48148;Laerm;29352;48.708;9.290;2023-02-03T05:18:53;53.93;50.80;60.12;;
48148;Laerm;29352;48.708;9.290;2023-02-03T05:21:19;52.71;49.11;63.82;;
48148;Laerm;29352;48.708;9.290;2023-02-03T05:23:44;50.14;15.00;81.07;;
48148;Laerm;29352;48.708;9.290;2023-02-03T05:26:10;41.90;15.00;50.71;;
48148;Laerm;29352;48.708;9.290;2023-02-03T05:28:36;46.04;15.00;52.47;;
48148;Laerm;29352;48.708;9.290;2023-02-03T05:31:02;49.14;15.00;58.78;;
48148;Laerm;29352;48.708;9.290;2023-02-03T05:33:29;50.61;42.93;57.44;;
48148;Laerm;29352;48.708;9.290;2023-02-03T05:35:55;51.71;43.90;63.08;;
48148;Laerm;29352;48.708;9.290;2023-02-03T05:38:20;52.03;48.05;62.22;;
48148;Laerm;29352;48.708;9.290;2023-02-03T05:40:47;51.75;48.21;59.32;;
48148;Laerm;29352;48.708;9.290;2023-02-03T05:43:32;98.21;49.08;106.93;;
48148;Laerm;29352;48.708;9.290;2023-02-03T05:46:03;102.65;83.45;107.75;;
48148;Laerm;29352;48.708;9.290;2023-02-03T05:48:32;103.03;70.77;108.37;;
48148;Laerm;29352;48.708;9.290;2023-02-03T05:50:58;105.43;57.79;111.15;;
48148;Laerm;29352;48.708;9.290;2023-02-03T05:53:24;103.97;84.33;111.03;;
48148;Laerm;29352;48.708;9.290;2023-02-03T05:55:51;87.51;15.00;104.08;;
48148;Laerm;29352;48.708;9.290;2023-02-03T05:58:17;68.80;15.00;96.04;;
48148;Laerm;29352;48.708;9.290;2023-02-03T06:00:42;45.85;15.00;65.57;;
48148;Laerm;29352;48.708;9.290;2023-02-03T06:03:08;44.60;15.00;50.53;;
48148;Laerm;29352;48.708;9.290;2023-02-03T06:05:34;47.20;15.00;52.76;;
48148;Laerm;29352;48.708;9.290;2023-02-03T06:08:02;48.39;33.90;53.86;;
48148;Laerm;29352;48.708;9.290;2023-02-03T06:10:27;48.88;40.89;53.09;;
48148;Laerm;29352;48.708;9.290;2023-02-03T06:12:53;49.16;36.91;59.56;;
48148;Laerm;29352;48.708;9.290;2023-02-03T06:15:18;48.91;38.67;54.76;;
48148;Laerm;29352;48.708;9.290;2023-02-03T06:17:47;49.10;41.68;56.40;;
48148;Laerm;29352;48.708;9.290;2023-02-03T06:20:16;49.82;43.90;54.80;;
48148;Laerm;29352;48.708;9.290;2023-02-03T06:22:42;50.56;44.31;59.65;;
48148;Laerm;29352;48.708;9.290;2023-02-03T06:25:09;50.30;44.69;57.76;;
48148;Laerm;29352;48.708;9.290;2023-02-03T06:27:35;49.92;44.31;56.15;;
48148;Laerm;29352;48.708;9.290;2023-02-03T06:30:00;50.11;44.31;55.54;;
48148;Laerm;29352;48.708;9.290;2023-02-03T06:32:26;49.81;44.31;56.10;;
48148;Laerm;29352;48.708;9.290;2023-02-03T06:34:51;50.81;42.35;65.73;;
48148;Laerm;29352;48.708;9.290;2023-02-03T06:37:17;49.78;41.68;58.23;;
48148;Laerm;29352;48.708;9.290;2023-02-03T06:39:42;48.84;15.00;62.50;;
48148;Laerm;29352;48.708;9.290;2023-02-03T06:42:07;48.76;39.92;53.72;;
48148;Laerm;29352;48.708;9.290;2023-02-03T06:44:33;48.63;39.92;52.53;;
48148;Laerm;29352;48.708;9.290;2023-02-03T06:46:59;48.97;39.92;52.93;;
48148;Laerm;29352;48.708;9.290;2023-02-03T06:49:26;48.68;41.68;52.41;;
48148;Laerm;29352;48.708;9.290;2023-02-03T06:51:51;48.77;38.32;52.59;;
48148;Laerm;29352;48.708;9.290;2023-02-03T06:54:17;52.54;43.90;57.57;;
48148;Laerm;29352;48.708;9.290;2023-02-03T06:56:43;53.69;49.70;57.86;;
48148;Laerm;29352;48.708;9.290;2023-02-03T06:59:09;53.34;48.37;57.57;;
48148;Laerm;29352;48.708;9.290;2023-02-03T07:01:36;52.83;41.68;56.95;;
48148;Laerm;29352;48.708;9.290;2023-02-03T07:04:02;53.02;49.46;58.87;;
48148;Laerm;29352;48.708;9.290;2023-02-03T07:06:29;53.14;49.21;57.40;;
48148;Laerm;29352;48.708;9.290;2023-02-03T07:08:59;52.90;43.44;57.55;;
48148;Laerm;29352;48.708;9.290;2023-02-03T07:11:26;53.02;49.34;70.09;;
48148;Laerm;29352;48.708;9.290;2023-02-03T07:13:52;53.22;47.88;69.68;;
48148;Laerm;29352;48.708;9.290;2023-02-03T07:16:18;52.45;38.67;75.72;;
48148;Laerm;29352;48.708;9.290;2023-02-03T07:18:44;51.71;39.92;64.72;;
48148;Laerm;29352;48.708;9.290;2023-02-03T07:21:10;51.81;46.91;64.73;;
48148;Laerm;29352;48.708;9.290;2023-02-03T07:23:36;50.67;43.44;59.82;;
48148;Laerm;29352;48.708;9.290;2023-02-03T07:26:04;52.59;45.66;72.21;;
48148;Laerm;29352;48.708;9.290;2023-02-03T07:28:34;53.12;46.91;68.15;;
48148;Laerm;29352;48.708;9.290;2023-02-03T07:31:01;51.63;46.10;60.30;;
48148;Laerm;29352;48.708;9.290;2023-02-03T07:33:29;50.56;45.04;59.27;;
48148;Laerm;29352;48.708;9.290;2023-02-03T07:35:59;50.85;42.93;59.82;;
48148;Laerm;29352;48.708;9.290;2023-02-03T07:38:26;50.88;46.20;55.39;;
48148;Laerm;29352;48.708;9.290;2023-02-03T07:40:52;51.42;45.66;54.83;;
48148;Laerm;29352;48.708;9.290;2023-02-03T07:43:18;52.73;39.92;73.72;;
48148;Laerm;29352;48.708;9.290;2023-02-03T07:45:45;53.21;47.88;72.32;;
48148;Laerm;29352;48.708;9.290;2023-02-03T07:48:10;52.85;45.36;63.79;;
48148;Laerm;29352;48.708;9.290;2023-02-03T07:50:36;54.42;15.00;70.83;;
48148;Laerm;29352;48.708;9.290;2023-02-03T07:53:02;52.16;46.45;59.87;;
48148;Laerm;29352;48.708;9.290;2023-02-03T07:55:28;51.41;45.04;64.57;;
48148;Laerm;29352;48.708;9.290;2023-02-03T07:57:56;50.92;42.35;62.28;;
48148;Laerm;29352;48.708;9.290;2023-02-03T08:00:22;51.22;45.94;58.78;;
48148;Laerm;29352;48.708;9.290;2023-02-03T08:02:48;50.80;45.04;60.50;;
48148;Laerm;29352;48.708;9.290;2023-02-03T08:05:15;50.70;45.94;60.55;;
48148;Laerm;29352;48.708;9.290;2023-02-03T08:07:41;49.66;36.91;57.55;;
48148;Laerm;29352;48.708;9.290;2023-02-03T08:10:11;50.18;36.91;60.77;;
48148;Laerm;29352;48.708;9.290;2023-02-03T08:12:38;51.76;40.89;63.59;;
48148;Laerm;29352;48.708;9.290;2023-02-03T08:15:05;53.75;49.70;70.78;;
48148;Laerm;29352;48.708;9.290;2023-02-03T08:17:31;52.96;15.00;67.42;;
48148;Laerm;29352;48.708;9.290;2023-02-03T08:19:58;36.36;15.00;49.21;;
48148;Laerm;29352;48.708;9.290;2023-02-03T08:22:23;36.12;15.00;48.21;;
48148;Laerm;29352;48.708;9.290;2023-02-03T08:24:49;30.66;15.00;47.52;;
48148;Laerm;29352;48.708;9.290;2023-02-03T08:27:19;36.10;15.00;49.81;;
48148;Laerm;29352;48.708;9.290;2023-02-03T08:29:46;40.99;15.00;50.23;;
48148;Laerm;29352;48.708;9.290;2023-02-03T08:32:21;46.29;15.00;53.28;;
48148;Laerm;29352;48.708;9.290;2023-02-03T08:34:48;48.89;33.90;56.48;;
48148;Laerm;29352;48.708;9.290;2023-02-03T08:37:19;51.68;45.36;63.33;;
48148;Laerm;29352;48.708;9.290;2023-02-03T08:39:45;52.38;46.69;69.10;;
48148;Laerm;29352;48.708;9.290;2023-02-03T08:42:11;52.95;47.32;64.66;;
48148;Laerm;29352;48.708;9.290;2023-02-03T08:44:36;52.51;51.30;55.75;;
48148;Laerm;29352;48.708;9.290;2023-02-03T08:47:04;52.58;51.30;65.56;;
48148;Laerm;29352;48.708;9.290;2023-02-03T08:49:31;52.57;51.11;65.31;;
48148;Laerm;29352;48.708;9.290;2023-02-03T08:51:57;52.83;51.22;71.41;;
48148;Laerm;29352;48.708;9.290;2023-02-03T08:54:24;52.57;51.46;65.94;;
48148;Laerm;29352;48.708;9.290;2023-02-03T08:56:50;52.83;51.06;70.26;;
48148;Laerm;29352;48.708;9.290;2023-02-03T08:59:16;52.67;51.26;64.03;;
48148;Laerm;29352;48.708;9.290;2023-02-03T09:01:42;52.86;15.00;75.93;;
48148;Laerm;29352;48.708;9.290;2023-02-03T09:04:16;52.86;51.14;72.00;;
48148;Laerm;29352;48.708;9.290;2023-02-03T09:06:45;52.51;51.22;67.51;;
48148;Laerm;29352;48.708;9.290;2023-02-03T09:09:13;52.55;51.14;68.77;;
48148;Laerm;29352;48.708;9.290;2023-02-03T09:11:40;52.78;51.06;73.12;;
48148;Laerm;29352;48.708;9.290;2023-02-03T09:14:06;52.51;51.30;58.13;;
48148;Laerm;29352;48.708;9.290;2023-02-03T09:16:32;52.19;15.00;66.78;;
48148;Laerm;29352;48.708;9.290;2023-02-03T09:18:57;50.96;15.00;65.49;;
48148;Laerm;29352;48.708;9.290;2023-02-03T09:21:23;45.55;15.00;54.39;;
48148;Laerm;29352;48.708;9.290;2023-02-03T09:23:49;48.33;15.00;57.72;;
48148;Laerm;29352;48.708;9.290;2023-02-03T09:26:15;46.10;15.00;64.04;;
48148;Laerm;29352;48.708;9.290;2023-02-03T09:28:41;41.47;15.00;49.70;;
48148;Laerm;29352;48.708;9.290;2023-02-03T09:31:13;40.74;15.00;49.08;;
48148;Laerm;29352;48.708;9.290;2023-02-03T09:33:40;42.12;15.00;50.53;;
48148;Laerm;29352;48.708;9.290;2023-02-03T09:36:07;44.57;15.00;50.62;;
48148;Laerm;29352;48.708;9.290;2023-02-03T09:38:33;47.53;15.00;52.88;;
48148;Laerm;29352;48.708;9.290;2023-02-03T09:44:04;49.26;15.00;65.25;;
48148;Laerm;29352;48.708;9.290;2023-02-03T09:47:02;49.24;36.91;66.97;;
48148;Laerm;29352;48.708;9.290;2023-02-03T09:49:46;49.00;38.67;55.86;;
48148;Laerm;29352;48.708;9.290;2023-02-03T09:52:26;49.29;38.32;54.43;;
48148;Laerm;29352;48.708;9.290;2023-02-03T09:55:06;49.10;41.68;57.67;;
48148;Laerm;29352;48.708;9.290;2023-02-03T09:58:03;49.76;42.35;57.24;;
48148;Laerm;29352;48.708;9.290;2023-02-03T10:00:35;51.35;46.45;59.14;;
48148;Laerm;29352;48.708;9.290;2023-02-03T10:03:13;50.81;45.66;61.70;;
48148;Laerm;29352;48.708;9.290;2023-02-03T10:18:18;51.52;43.44;67.45;;
48148;Laerm;29352;48.708;9.290;2023-02-03T10:20:52;51.49;43.90;57.18;;
48148;Laerm;29352;48.708;9.290;2023-02-03T10:23:27;50.97;46.45;58.73;;
48148;Laerm;29352;48.708;9.290;2023-02-03T10:25:55;50.73;45.94;58.00;;
48148;Laerm;29352;48.708;9.290;2023-02-03T10:28:31;50.10;40.89;55.51;;
48148;Laerm;29352;48.708;9.290;2023-02-03T10:31:16;49.83;43.90;58.16;;
48148;Laerm;29352;48.708;9.290;2023-02-03T10:33:42;49.46;41.68;54.31;;
48148;Laerm;29352;48.708;9.290;2023-02-03T10:36:22;48.86;41.68;54.16;;
48148;Laerm;29352;48.708;9.290;2023-02-03T10:39:30;48.88;40.89;55.63;;
48148;Laerm;29352;48.708;9.290;2023-02-03T10:41:57;50.44;44.31;59.23;;
48148;Laerm;29352;48.708;9.290;2023-02-03T10:44:48;50.95;46.69;55.04;;
48148;Laerm;29352;48.708;9.290;2023-02-03T10:47:37;50.33;33.90;54.27;;
48148;Laerm;29352;48.708;9.290;2023-02-03T10:50:17;48.42;33.90;56.76;;
48148;Laerm;29352;48.708;9.290;2023-02-03T10:52:44;47.99;15.00;53.86;;
48148;Laerm;29352;48.708;9.290;2023-02-03T10:57:44;53.31;52.29;54.58;;
48148;Laerm;29352;48.708;9.290;2023-02-03T11:02:53;50.59;15.00;54.39;;
48148;Laerm;29352;48.708;9.290;2023-02-03T11:05:22;44.29;15.00;65.79;;
48148;Laerm;29352;48.708;9.290;2023-02-03T11:07:50;44.76;15.00;56.43;;
48148;Laerm;29352;48.708;9.290;2023-02-03T11:10:37;43.65;15.00;51.22;;
48148;Laerm;29352;48.708;9.290;2023-02-03T11:13:25;49.16;15.00;53.24;;
48148;Laerm;29352;48.708;9.290;2023-02-03T11:18:54;50.77;45.04;60.14;;
48148;Laerm;29352;48.708;9.290;2023-02-03T11:21:27;50.80;45.94;56.45;;
48148;Laerm;29352;48.708;9.290;2023-02-03T11:24:15;50.30;42.93;57.68;;
48148;Laerm;29352;48.708;9.290;2023-02-03T11:27:04;50.81;43.44;60.92;;
48148;Laerm;29352;48.708;9.290;2023-02-03T11:29:39;50.35;44.69;57.88;;
48148;Laerm;29352;48.708;9.290;2023-02-03T11:32:20;51.59;47.88;55.93;;
48148;Laerm;29352;48.708;9.290;2023-02-03T11:35:12;49.51;38.67;56.93;;
48148;Laerm;29352;48.708;9.290;2023-02-03T11:37:42;49.25;42.93;67.48;;
48148;Laerm;29352;48.708;9.290;2023-02-03T11:42:42;45.25;15.00;52.09;;
48148;Laerm;29352;48.708;9.290;2023-02-03T11:47:49;48.03;33.90;52.88;;
48148;Laerm;29352;48.708;9.290;2023-02-03T12:01:57;49.18;40.89;57.57;;
48148;Laerm;29352;48.708;9.290;2023-02-03T12:17:00;49.95;38.67;54.94;;
48148;Laerm;29352;48.708;9.290;2023-02-03T12:28:44;50.62;15.00;67.18;;
48148;Laerm;29352;48.708;9.290;2023-02-03T12:31:30;52.49;48.81;57.55;;
48148;Laerm;29352;48.708;9.290;2023-02-03T12:34:30;52.53;47.32;57.13;;
48148;Laerm;29352;48.708;9.290;2023-02-03T12:37:16;51.73;43.44;55.91;;
48148;Laerm;29352;48.708;9.290;2023-02-03T12:40:03;51.45;46.91;65.78;;
48148;Laerm;29352;48.708;9.290;2023-02-03T12:42:52;50.56;43.44;58.02;;
48148;Laerm;29352;48.708;9.290;2023-02-03T12:45:33;49.64;38.32;54.87;;
48148;Laerm;29352;48.708;9.290;2023-02-03T12:48:15;49.38;41.68;53.90;;
48148;Laerm;29352;48.708;9.290;2023-02-03T12:50:56;49.09;39.92;56.95;;
48148;Laerm;29352;48.708;9.290;2023-02-03T12:53:36;49.27;40.89;54.27;;
48148;Laerm;29352;48.708;9.290;2023-02-03T12:56:18;48.92;36.91;56.30;;
48148;Laerm;29352;48.708;9.290;2023-02-03T12:59:02;49.31;15.00;54.51;;
48148;Laerm;29352;48.708;9.290;2023-02-03T13:01:47;49.86;38.67;61.73;;
48148;Laerm;29352;48.708;9.290;2023-02-03T13:04:35;49.61;15.00;54.83;;
48148;Laerm;29352;48.708;9.290;2023-02-03T13:07:11;49.83;39.92;54.69;;
48148;Laerm;29352;48.708;9.290;2023-02-03T13:09:59;49.58;39.92;55.39;;
48148;Laerm;29352;48.708;9.290;2023-02-03T13:12:40;49.40;15.00;53.44;;
48148;Laerm;29352;48.708;9.290;2023-02-03T13:15:34;49.00;15.00;54.54;;
48148;Laerm;29352;48.708;9.290;2023-02-03T13:18:25;50.59;44.69;56.23;;
48148;Laerm;29352;48.708;9.290;2023-02-03T13:20:54;50.31;15.00;73.88;;
48148;Laerm;29352;48.708;9.290;2023-02-03T13:23:22;51.18;40.89;61.06;;
48148;Laerm;29352;48.708;9.290;2023-02-03T13:37:52;49.14;15.00;57.28;;
48148;Laerm;29352;48.708;9.290;2023-02-03T13:41:05;48.57;15.00;55.57;;
48148;Laerm;29352;48.708;9.290;2023-02-03T13:43:44;57.35;15.00;93.41;;
48148;Laerm;29352;48.708;9.290;2023-02-03T13:46:26;49.00;15.00;53.24;;
48148;Laerm;29352;48.708;9.290;2023-02-03T13:49:00;48.00;15.00;56.84;;
48148;Laerm;29352;48.708;9.290;2023-02-03T13:51:34;49.29;15.00;55.07;;
48148;Laerm;29352;48.708;9.290;2023-02-03T13:57:21;51.11;15.00;69.79;;
48148;Laerm;29352;48.708;9.290;2023-02-03T13:59:48;51.33;15.00;59.45;;
48148;Laerm;29352;48.708;9.290;2023-02-03T14:10:22;50.77;15.00;57.02;;
48148;Laerm;29352;48.708;9.290;2023-02-03T14:18:31;54.69;48.52;64.01;;
48148;Laerm;29352;48.708;9.290;2023-02-03T14:21:21;54.87;15.00;65.94;;
48148;Laerm;29352;48.708;9.290;2023-02-03T14:23:58;52.43;44.69;60.55;;
48148;Laerm;29352;48.708;9.290;2023-02-03T14:26:39;49.43;15.00;55.23;;
48148;Laerm;29352;48.708;9.290;2023-02-03T14:29:23;52.80;15.00;58.66;;
48148;Laerm;29352;48.708;9.290;2023-02-03T14:34:55;54.46;43.44;60.72;;
48148;Laerm;29352;48.708;9.290;2023-02-03T14:37:31;54.49;46.69;64.12;;
48148;Laerm;29352;48.708;9.290;2023-02-03T14:54:55;54.80;45.94;58.36;;
48148;Laerm;29352;48.708;9.290;2023-02-03T15:07:57;52.86;46.69;69.59;;
48148;Laerm;29352;48.708;9.290;2023-02-03T15:10:41;52.54;42.93;66.25;;
48148;Laerm;29352;48.708;9.290;2023-02-03T15:13:27;50.56;33.90;62.80;;
48148;Laerm;29352;48.708;9.290;2023-02-03T15:15:58;52.93;15.00;77.47;;
48148;Laerm;29352;48.708;9.290;2023-02-03T15:18:38;50.01;15.00;62.81;;
48148;Laerm;29352;48.708;9.290;2023-02-03T15:21:14;53.86;43.90;69.36;;
48148;Laerm;29352;48.708;9.290;2023-02-03T15:23:44;53.10;45.59;68.92;;
48148;Laerm;29352;48.708;9.290;2023-02-03T15:26:24;53.40;45.31;68.04;;
48148;Laerm;29352;48.708;9.290;2023-02-03T15:29:02;50.33;15.00;59.46;;
48148;Laerm;29352;48.708;9.290;2023-02-03T15:31:37;49.00;15.00;57.02;;
48148;Laerm;29352;48.708;9.290;2023-02-03T15:34:27;49.37;40.89;57.30;;
48148;Laerm;29352;48.708;9.290;2023-02-03T15:37:05;53.31;38.67;67.79;;
48148;Laerm;29352;48.708;9.290;2023-02-03T15:40:17;54.86;44.31;72.16;;
48148;Laerm;29352;48.708;9.290;2023-02-03T15:43:00;51.59;44.31;64.53;;
48148;Laerm;29352;48.708;9.290;2023-02-03T15:45:52;50.91;42.93;54.97;;
48148;Laerm;29352;48.708;9.290;2023-02-03T15:51:40;51.42;46.45;54.73;;
48148;Laerm;29352;48.708;9.290;2023-02-03T15:54:12;50.87;43.44;54.83;;
48148;Laerm;29352;48.708;9.290;2023-02-03T15:56:50;50.28;38.32;55.14;;
48148;Laerm;29352;48.708;9.290;2023-02-03T15:59:38;49.28;38.67;53.49;;
48148;Laerm;29352;48.708;9.290;2023-02-03T16:02:30;49.50;41.68;53.49;;
48148;Laerm;29352;48.708;9.290;2023-02-03T16:07:42;50.14;43.90;53.60;;
48148;Laerm;29352;48.708;9.290;2023-02-03T16:10:32;50.69;45.94;53.60;;
48148;Laerm;29352;48.708;9.290;2023-02-03T16:13:23;50.27;42.35;53.68;;
48148;Laerm;29352;48.708;9.290;2023-02-03T16:16:15;51.07;44.31;55.04;;
48148;Laerm;29352;48.708;9.290;2023-02-03T16:18:55;51.00;46.69;54.19;;
48148;Laerm;29352;48.708;9.290;2023-02-03T16:23:55;50.57;46.20;53.77;;
48148;Laerm;29352;48.708;9.290;2023-02-03T16:26:27;50.58;42.93;55.63;;
48148;Laerm;29352;48.708;9.290;2023-02-03T16:31:47;50.73;44.69;56.43;;
48148;Laerm;29352;48.708;9.290;2023-02-03T16:34:32;50.23;40.89;56.82;;
48148;Laerm;29352;48.708;9.290;2023-02-03T16:40:21;49.96;42.35;56.82;;
48148;Laerm;29352;48.708;9.290;2023-02-03T16:43:14;48.06;33.55;52.59;;
48148;Laerm;29352;48.708;9.290;2023-02-03T16:46:00;48.97;15.00;55.48;;
48148;Laerm;29352;48.708;9.290;2023-02-03T16:48:45;49.39;15.00;55.01;;
48148;Laerm;29352;48.708;9.290;2023-02-03T16:51:40;50.96;33.90;67.60;;
48148;Laerm;29352;48.708;9.290;2023-02-03T16:54:11;51.34;15.00;62.36;;